sensor_id;sensor_type;location;lat;lon;timestamp;P1;durP1;ratioP1;P2;durP2;ratioP2
26157;SDS011;67284;44.782;10.282;2023-07-29T00:00:35;7.38;;;3.55;;
26157;SDS011;67284;44.782;10.282;2023-07-29T00:05:27;6.80;;;3.17;;
26157;SDS011;67284;44.782;10.282;2023-07-29T00:10:19;8.35;;;3.85;;
26157;SDS011;67284;44.782;10.282;2023-07-29T00:15:11;6.25;;;3.72;;
26157;SDS011;67284;44.782;10.282;2023-07-29T00:20:03;4.88;;;3.45;;
26157;SDS011;67284;44.782;10.282;2023-07-29T00:24:59;7.47;;;3.78;;
26157;SDS011;67284;44.782;10.282;2023-07-29T00:29:51;5.32;;;3.58;;
26157;SDS011;67284;44.782;10.282;2023-07-29T00:34:43;6.75;;;3.42;;
26157;SDS011;67284;44.782;10.282;2023-07-29T00:39:35;5.50;;;3.35;;
26157;SDS011;67284;44.782;10.282;2023-07-29T00:44:28;4.10;;;3.17;;
26157;SDS011;67284;44.782;10.282;2023-07-29T00:49:20;4.88;;;3.80;;
26157;SDS011;67284;44.782;10.282;2023-07-29T00:54:13;5.22;;;3.58;;
26157;SDS011;67284;44.782;10.282;2023-07-29T00:59:05;6.22;;;3.72;;
26157;SDS011;67284;44.782;10.282;2023-07-29T01:03:57;4.80;;;3.72;;
26157;SDS011;67284;44.782;10.282;2023-07-29T01:08:51;18.55;;;3.95;;
26157;SDS011;67284;44.782;10.282;2023-07-29T01:13:53;12.75;;;4.90;;
26157;SDS011;67284;44.782;10.282;2023-07-29T01:18:53;16.98;;;5.72;;
26157;SDS011;67284;44.782;10.282;2023-07-29T01:23:47;10.02;;;4.25;;
26157;SDS011;67284;44.782;10.282;2023-07-29T01:28:39;6.68;;;4.20;;
26157;SDS011;67284;44.782;10.282;2023-07-29T01:33:33;7.32;;;4.10;;
26157;SDS011;67284;44.782;10.282;2023-07-29T01:38:35;9.20;;;4.22;;
26157;SDS011;67284;44.782;10.282;2023-07-29T01:43:30;9.15;;;3.75;;
26157;SDS011;67284;44.782;10.282;2023-07-29T01:48:22;5.13;;;3.40;;
26157;SDS011;67284;44.782;10.282;2023-07-29T01:53:15;6.63;;;3.85;;
26157;SDS011;67284;44.782;10.282;2023-07-29T01:58:07;5.20;;;4.05;;
26157;SDS011;67284;44.782;10.282;2023-07-29T02:03:01;6.57;;;3.78;;
26157;SDS011;67284;44.782;10.282;2023-07-29T02:07:53;6.38;;;3.42;;
26157;SDS011;67284;44.782;10.282;2023-07-29T02:12:45;4.47;;;3.83;;
26157;SDS011;67284;44.782;10.282;2023-07-29T02:17:36;7.28;;;3.80;;
26157;SDS011;67284;44.782;10.282;2023-07-29T02:22:29;7.50;;;4.10;;
26157;SDS011;67284;44.782;10.282;2023-07-29T02:27:21;8.25;;;5.45;;
26157;SDS011;67284;44.782;10.282;2023-07-29T02:32:12;7.95;;;3.85;;
26157;SDS011;67284;44.782;10.282;2023-07-29T02:37:04;7.70;;;4.35;;
26157;SDS011;67284;44.782;10.282;2023-07-29T02:41:56;6.30;;;4.10;;
26157;SDS011;67284;44.782;10.282;2023-07-29T02:46:49;6.38;;;4.32;;
26157;SDS011;67284;44.782;10.282;2023-07-29T02:51:43;10.15;;;4.32;;
26157;SDS011;67284;44.782;10.282;2023-07-29T02:56:35;6.78;;;4.80;;
26157;SDS011;67284;44.782;10.282;2023-07-29T03:01:27;8.43;;;4.53;;
26157;SDS011;67284;44.782;10.282;2023-07-29T03:06:19;5.55;;;4.72;;
26157;SDS011;67284;44.782;10.282;2023-07-29T03:11:15;7.75;;;4.30;;
26157;SDS011;67284;44.782;10.282;2023-07-29T03:16:09;7.32;;;4.85;;
26157;SDS011;67284;44.782;10.282;2023-07-29T03:21:03;7.82;;;4.85;;
26157;SDS011;67284;44.782;10.282;2023-07-29T03:25:56;5.35;;;4.35;;
26157;SDS011;67284;44.782;10.282;2023-07-29T03:30:50;7.07;;;5.10;;
26157;SDS011;67284;44.782;10.282;2023-07-29T03:35:42;5.18;;;4.65;;
26157;SDS011;67284;44.782;10.282;2023-07-29T03:40:36;5.68;;;4.57;;
26157;SDS011;67284;44.782;10.282;2023-07-29T03:45:28;6.07;;;5.13;;
26157;SDS011;67284;44.782;10.282;2023-07-29T03:50:19;10.38;;;6.15;;
26157;SDS011;67284;44.782;10.282;2023-07-29T03:55:11;11.73;;;5.90;;
26157;SDS011;67284;44.782;10.282;2023-07-29T04:00:03;8.32;;;5.93;;
26157;SDS011;67284;44.782;10.282;2023-07-29T04:05:05;7.25;;;5.35;;
26157;SDS011;67284;44.782;10.282;2023-07-29T04:10:01;8.27;;;5.25;;
26157;SDS011;67284;44.782;10.282;2023-07-29T04:14:53;13.98;;;6.68;;
26157;SDS011;67284;44.782;10.282;2023-07-29T04:19:45;8.07;;;5.90;;
26157;SDS011;67284;44.782;10.282;2023-07-29T04:24:38;7.88;;;5.75;;
26157;SDS011;67284;44.782;10.282;2023-07-29T04:29:29;8.77;;;5.72;;
26157;SDS011;67284;44.782;10.282;2023-07-29T04:34:21;7.38;;;5.72;;
26157;SDS011;67284;44.782;10.282;2023-07-29T04:39:13;10.82;;;6.90;;
26157;SDS011;67284;44.782;10.282;2023-07-29T04:44:06;8.55;;;6.35;;
26157;SDS011;67284;44.782;10.282;2023-07-29T04:48:58;10.32;;;7.18;;
26157;SDS011;67284;44.782;10.282;2023-07-29T04:53:50;11.88;;;7.10;;
26157;SDS011;67284;44.782;10.282;2023-07-29T04:58:42;11.20;;;6.30;;
26157;SDS011;67284;44.782;10.282;2023-07-29T05:03:34;10.85;;;7.32;;
26157;SDS011;67284;44.782;10.282;2023-07-29T05:08:26;8.88;;;6.70;;
26157;SDS011;67284;44.782;10.282;2023-07-29T05:13:18;8.02;;;5.85;;
26157;SDS011;67284;44.782;10.282;2023-07-29T05:18:11;11.23;;;7.03;;
26157;SDS011;67284;44.782;10.282;2023-07-29T05:23:03;10.73;;;7.18;;
26157;SDS011;67284;44.782;10.282;2023-07-29T05:27:55;12.45;;;7.10;;
26157;SDS011;67284;44.782;10.282;2023-07-29T05:32:47;10.07;;;6.40;;
26157;SDS011;67284;44.782;10.282;2023-07-29T05:37:39;9.95;;;7.50;;
26157;SDS011;67284;44.782;10.282;2023-07-29T05:42:33;7.57;;;6.22;;
26157;SDS011;67284;44.782;10.282;2023-07-29T05:47:26;8.23;;;6.35;;
26157;SDS011;67284;44.782;10.282;2023-07-29T05:52:18;8.38;;;6.32;;
26157;SDS011;67284;44.782;10.282;2023-07-29T05:57:11;7.10;;;5.65;;
26157;SDS011;67284;44.782;10.282;2023-07-29T06:02:03;9.82;;;6.53;;
26157;SDS011;67284;44.782;10.282;2023-07-29T06:06:56;8.88;;;6.28;;
26157;SDS011;67284;44.782;10.282;2023-07-29T06:11:48;6.50;;;5.47;;
26157;SDS011;67284;44.782;10.282;2023-07-29T06:16:40;10.40;;;6.25;;
26157;SDS011;67284;44.782;10.282;2023-07-29T06:21:32;12.05;;;6.88;;
26157;SDS011;67284;44.782;10.282;2023-07-29T06:26:24;11.10;;;6.47;;
26157;SDS011;67284;44.782;10.282;2023-07-29T06:31:15;7.03;;;5.30;;
26157;SDS011;67284;44.782;10.282;2023-07-29T06:36:07;6.90;;;5.72;;
26157;SDS011;67284;44.782;10.282;2023-07-29T06:40:59;7.07;;;5.72;;
26157;SDS011;67284;44.782;10.282;2023-07-29T06:45:51;5.95;;;5.40;;
26157;SDS011;67284;44.782;10.282;2023-07-29T06:50:43;7.82;;;5.40;;
26157;SDS011;67284;44.782;10.282;2023-07-29T06:55:35;8.90;;;5.60;;
26157;SDS011;67284;44.782;10.282;2023-07-29T07:00:27;8.40;;;5.60;;
26157;SDS011;67284;44.782;10.282;2023-07-29T07:05:19;9.00;;;5.30;;
26157;SDS011;67284;44.782;10.282;2023-07-29T07:10:10;5.75;;;5.15;;
26157;SDS011;67284;44.782;10.282;2023-07-29T07:15:02;7.07;;;5.15;;
26157;SDS011;67284;44.782;10.282;2023-07-29T07:19:54;7.60;;;5.30;;
26157;SDS011;67284;44.782;10.282;2023-07-29T07:24:46;6.80;;;5.47;;
26157;SDS011;67284;44.782;10.282;2023-07-29T07:29:38;7.60;;;5.30;;
26157;SDS011;67284;44.782;10.282;2023-07-29T07:34:30;7.93;;;5.65;;
26157;SDS011;67284;44.782;10.282;2023-07-29T07:39:22;7.85;;;5.28;;
26157;SDS011;67284;44.782;10.282;2023-07-29T07:44:14;8.55;;;5.63;;
26157;SDS011;67284;44.782;10.282;2023-07-29T07:49:09;6.00;;;4.75;;
26157;SDS011;67284;44.782;10.282;2023-07-29T07:54:01;7.53;;;4.80;;
26157;SDS011;67284;44.782;10.282;2023-07-29T07:58:52;7.18;;;5.20;;
26157;SDS011;67284;44.782;10.282;2023-07-29T08:03:44;8.48;;;5.80;;
26157;SDS011;67284;44.782;10.282;2023-07-29T08:08:36;5.85;;;5.22;;
26157;SDS011;67284;44.782;10.282;2023-07-29T08:13:28;6.40;;;5.35;;
26157;SDS011;67284;44.782;10.282;2023-07-29T08:18:20;7.85;;;5.20;;
26157;SDS011;67284;44.782;10.282;2023-07-29T08:23:12;9.38;;;5.07;;
26157;SDS011;67284;44.782;10.282;2023-07-29T08:28:04;9.10;;;5.30;;
26157;SDS011;67284;44.782;10.282;2023-07-29T08:32:56;7.80;;;5.30;;
26157;SDS011;67284;44.782;10.282;2023-07-29T08:37:48;7.50;;;5.07;;
26157;SDS011;67284;44.782;10.282;2023-07-29T08:42:40;8.00;;;5.65;;
26157;SDS011;67284;44.782;10.282;2023-07-29T08:47:33;6.85;;;5.63;;
26157;SDS011;67284;44.782;10.282;2023-07-29T08:52:29;10.10;;;5.68;;
26157;SDS011;67284;44.782;10.282;2023-07-29T08:57:21;6.60;;;5.10;;
26157;SDS011;67284;44.782;10.282;2023-07-29T09:02:13;8.52;;;5.43;;
26157;SDS011;67284;44.782;10.282;2023-07-29T09:07:05;8.77;;;5.00;;
26157;SDS011;67284;44.782;10.282;2023-07-29T09:11:59;6.15;;;4.78;;
26157;SDS011;67284;44.782;10.282;2023-07-29T09:16:50;6.75;;;4.93;;
26157;SDS011;67284;44.782;10.282;2023-07-29T09:21:42;8.57;;;5.28;;
26157;SDS011;67284;44.782;10.282;2023-07-29T09:26:39;7.85;;;5.32;;
26157;SDS011;67284;44.782;10.282;2023-07-29T09:31:39;6.68;;;5.22;;
26157;SDS011;67284;44.782;10.282;2023-07-29T09:36:32;8.60;;;6.05;;
26157;SDS011;67284;44.782;10.282;2023-07-29T09:41:28;8.80;;;5.15;;
26157;SDS011;67284;44.782;10.282;2023-07-29T09:46:24;7.60;;;5.10;;
26157;SDS011;67284;44.782;10.282;2023-07-29T09:51:17;5.53;;;4.47;;
26157;SDS011;67284;44.782;10.282;2023-07-29T09:56:09;7.43;;;4.97;;
26157;SDS011;67284;44.782;10.282;2023-07-29T10:01:02;7.00;;;5.10;;
26157;SDS011;67284;44.782;10.282;2023-07-29T10:05:54;9.30;;;5.18;;
26157;SDS011;67284;44.782;10.282;2023-07-29T10:10:46;8.77;;;5.40;;
26157;SDS011;67284;44.782;10.282;2023-07-29T10:15:38;9.38;;;5.72;;
26157;SDS011;67284;44.782;10.282;2023-07-29T10:20:31;8.55;;;5.50;;
26157;SDS011;67284;44.782;10.282;2023-07-29T10:25:25;6.70;;;4.97;;
26157;SDS011;67284;44.782;10.282;2023-07-29T10:30:24;7.55;;;4.80;;
26157;SDS011;67284;44.782;10.282;2023-07-29T10:35:16;6.55;;;4.47;;
26157;SDS011;67284;44.782;10.282;2023-07-29T10:40:09;8.73;;;5.30;;
26157;SDS011;67284;44.782;10.282;2023-07-29T10:45:21;10.88;;;5.50;;
26157;SDS011;67284;44.782;10.282;2023-07-29T10:50:17;8.35;;;6.03;;
26157;SDS011;67284;44.782;10.282;2023-07-29T10:55:32;6.60;;;5.47;;
26157;SDS011;67284;44.782;10.282;2023-07-29T11:00:30;6.10;;;5.20;;
26157;SDS011;67284;44.782;10.282;2023-07-29T11:05:22;7.70;;;5.32;;
26157;SDS011;67284;44.782;10.282;2023-07-29T11:10:14;8.80;;;5.13;;
26157;SDS011;67284;44.782;10.282;2023-07-29T11:20:02;8.05;;;4.50;;
26157;SDS011;67284;44.782;10.282;2023-07-29T11:24:55;5.93;;;4.63;;
26157;SDS011;67284;44.782;10.282;2023-07-29T11:29:47;6.45;;;4.43;;
26157;SDS011;67284;44.782;10.282;2023-07-29T11:34:40;10.10;;;5.05;;
26157;SDS011;67284;44.782;10.282;2023-07-29T11:39:32;11.68;;;5.20;;
26157;SDS011;67284;44.782;10.282;2023-07-29T11:44:24;6.68;;;5.28;;
26157;SDS011;67284;44.782;10.282;2023-07-29T11:49:16;5.68;;;4.80;;
26157;SDS011;67284;44.782;10.282;2023-07-29T11:54:08;5.78;;;4.35;;
26157;SDS011;67284;44.782;10.282;2023-07-29T11:59:01;7.63;;;4.75;;
26157;SDS011;67284;44.782;10.282;2023-07-29T12:03:55;6.05;;;4.80;;
26157;SDS011;67284;44.782;10.282;2023-07-29T12:08:48;6.75;;;4.63;;
26157;SDS011;67284;44.782;10.282;2023-07-29T12:13:43;8.77;;;5.28;;
26157;SDS011;67284;44.782;10.282;2023-07-29T12:18:35;9.15;;;4.30;;
26157;SDS011;67284;44.782;10.282;2023-07-29T12:23:28;5.47;;;4.57;;
26157;SDS011;67284;44.782;10.282;2023-07-29T12:28:21;6.55;;;4.90;;
26157;SDS011;67284;44.782;10.282;2023-07-29T12:33:29;6.20;;;4.88;;
26157;SDS011;67284;44.782;10.282;2023-07-29T12:38:22;6.10;;;5.00;;
26157;SDS011;67284;44.782;10.282;2023-07-29T12:43:14;6.55;;;4.43;;
26157;SDS011;67284;44.782;10.282;2023-07-29T12:48:06;5.85;;;4.63;;
26157;SDS011;67284;44.782;10.282;2023-07-29T12:52:58;7.03;;;4.13;;
26157;SDS011;67284;44.782;10.282;2023-07-29T12:57:50;6.57;;;4.32;;
26157;SDS011;67284;44.782;10.282;2023-07-29T13:02:42;5.03;;;4.53;;
26157;SDS011;67284;44.782;10.282;2023-07-29T13:07:33;8.50;;;4.65;;
26157;SDS011;67284;44.782;10.282;2023-07-29T13:12:25;6.68;;;4.53;;
26157;SDS011;67284;44.782;10.282;2023-07-29T13:17:17;8.00;;;4.55;;
26157;SDS011;67284;44.782;10.282;2023-07-29T13:22:09;8.23;;;4.68;;
26157;SDS011;67284;44.782;10.282;2023-07-29T13:27:01;6.20;;;5.30;;
26157;SDS011;67284;44.782;10.282;2023-07-29T13:31:53;6.80;;;3.95;;
26157;SDS011;67284;44.782;10.282;2023-07-29T13:36:45;4.88;;;4.07;;
26157;SDS011;67284;44.782;10.282;2023-07-29T13:41:37;6.28;;;5.03;;
26157;SDS011;67284;44.782;10.282;2023-07-29T13:46:28;4.95;;;4.20;;
26157;SDS011;67284;44.782;10.282;2023-07-29T13:51:20;4.55;;;3.80;;
26157;SDS011;67284;44.782;10.282;2023-07-29T13:56:12;7.40;;;5.05;;
26157;SDS011;67284;44.782;10.282;2023-07-29T14:01:04;6.00;;;4.20;;
26157;SDS011;67284;44.782;10.282;2023-07-29T14:05:56;8.30;;;4.70;;
26157;SDS011;67284;44.782;10.282;2023-07-29T14:10:48;6.13;;;4.07;;
26157;SDS011;67284;44.782;10.282;2023-07-29T14:15:41;7.05;;;4.25;;
26157;SDS011;67284;44.782;10.282;2023-07-29T14:20:32;6.00;;;4.25;;
26157;SDS011;67284;44.782;10.282;2023-07-29T14:25:24;4.75;;;4.28;;
26157;SDS011;67284;44.782;10.282;2023-07-29T14:30:16;5.00;;;3.83;;
26157;SDS011;67284;44.782;10.282;2023-07-29T14:35:08;4.53;;;4.03;;
26157;SDS011;67284;44.782;10.282;2023-07-29T14:40:00;6.03;;;4.35;;
26157;SDS011;67284;44.782;10.282;2023-07-29T14:44:53;4.95;;;3.88;;
26157;SDS011;67284;44.782;10.282;2023-07-29T14:49:46;6.40;;;4.65;;
26157;SDS011;67284;44.782;10.282;2023-07-29T14:54:38;7.00;;;4.32;;
26157;SDS011;67284;44.782;10.282;2023-07-29T14:59:30;8.88;;;4.28;;
26157;SDS011;67284;44.782;10.282;2023-07-29T15:04:22;7.43;;;4.20;;
26157;SDS011;67284;44.782;10.282;2023-07-29T15:09:13;10.80;;;4.25;;
26157;SDS011;67284;44.782;10.282;2023-07-29T15:14:05;8.35;;;4.65;;
26157;SDS011;67284;44.782;10.282;2023-07-29T15:18:57;6.65;;;4.25;;
26157;SDS011;67284;44.782;10.282;2023-07-29T15:23:49;8.35;;;4.65;;
26157;SDS011;67284;44.782;10.282;2023-07-29T15:28:41;5.78;;;4.28;;
26157;SDS011;67284;44.782;10.282;2023-07-29T15:33:32;6.85;;;4.18;;
26157;SDS011;67284;44.782;10.282;2023-07-29T15:38:26;6.72;;;4.32;;
26157;SDS011;67284;44.782;10.282;2023-07-29T15:43:17;8.27;;;4.57;;
26157;SDS011;67284;44.782;10.282;2023-07-29T15:48:10;5.78;;;4.55;;
26157;SDS011;67284;44.782;10.282;2023-07-29T15:53:02;5.80;;;4.13;;
26157;SDS011;67284;44.782;10.282;2023-07-29T15:57:54;6.25;;;3.97;;
26157;SDS011;67284;44.782;10.282;2023-07-29T16:02:46;4.75;;;4.18;;
26157;SDS011;67284;44.782;10.282;2023-07-29T16:07:38;4.63;;;3.80;;
26157;SDS011;67284;44.782;10.282;2023-07-29T16:12:30;7.80;;;4.32;;
26157;SDS011;67284;44.782;10.282;2023-07-29T16:17:25;6.18;;;4.25;;
26157;SDS011;67284;44.782;10.282;2023-07-29T16:22:17;6.50;;;4.95;;
26157;SDS011;67284;44.782;10.282;2023-07-29T16:27:08;7.78;;;4.75;;
26157;SDS011;67284;44.782;10.282;2023-07-29T16:32:00;5.47;;;4.90;;
26157;SDS011;67284;44.782;10.282;2023-07-29T16:36:52;7.45;;;5.55;;
26157;SDS011;67284;44.782;10.282;2023-07-29T16:41:44;7.47;;;4.35;;
26157;SDS011;67284;44.782;10.282;2023-07-29T16:46:39;7.97;;;4.75;;
26157;SDS011;67284;44.782;10.282;2023-07-29T16:51:31;5.60;;;4.72;;
26157;SDS011;67284;44.782;10.282;2023-07-29T16:56:23;6.80;;;4.47;;
26157;SDS011;67284;44.782;10.282;2023-07-29T17:01:14;7.78;;;5.18;;
26157;SDS011;67284;44.782;10.282;2023-07-29T17:06:06;5.70;;;4.85;;
26157;SDS011;67284;44.782;10.282;2023-07-29T17:10:58;7.63;;;4.40;;
26157;SDS011;67284;44.782;10.282;2023-07-29T17:15:50;6.93;;;4.10;;
26157;SDS011;67284;44.782;10.282;2023-07-29T17:20:42;7.22;;;4.18;;
26157;SDS011;67284;44.782;10.282;2023-07-29T17:25:34;7.43;;;4.60;;
26157;SDS011;67284;44.782;10.282;2023-07-29T17:30:25;5.20;;;4.70;;
26157;SDS011;67284;44.782;10.282;2023-07-29T17:35:19;8.18;;;5.32;;
26157;SDS011;67284;44.782;10.282;2023-07-29T17:40:11;8.05;;;4.40;;
26157;SDS011;67284;44.782;10.282;2023-07-29T17:45:03;6.50;;;4.18;;
26157;SDS011;67284;44.782;10.282;2023-07-29T17:49:56;12.73;;;4.75;;
26157;SDS011;67284;44.782;10.282;2023-07-29T17:54:48;7.47;;;5.00;;
26157;SDS011;67284;44.782;10.282;2023-07-29T17:59:40;5.60;;;4.63;;
26157;SDS011;67284;44.782;10.282;2023-07-29T18:04:32;8.95;;;4.65;;
26157;SDS011;67284;44.782;10.282;2023-07-29T18:09:24;6.43;;;4.40;;
26157;SDS011;67284;44.782;10.282;2023-07-29T18:14:16;6.22;;;4.22;;
26157;SDS011;67284;44.782;10.282;2023-07-29T18:19:08;9.43;;;4.78;;
26157;SDS011;67284;44.782;10.282;2023-07-29T18:24:00;5.03;;;4.00;;
26157;SDS011;67284;44.782;10.282;2023-07-29T18:28:51;7.07;;;4.65;;
26157;SDS011;67284;44.782;10.282;2023-07-29T18:33:43;7.55;;;4.90;;
26157;SDS011;67284;44.782;10.282;2023-07-29T18:38:35;6.60;;;4.10;;
26157;SDS011;67284;44.782;10.282;2023-07-29T18:43:28;7.72;;;4.03;;
26157;SDS011;67284;44.782;10.282;2023-07-29T18:48:20;5.25;;;4.47;;
26157;SDS011;67284;44.782;10.282;2023-07-29T18:53:12;6.78;;;4.43;;
26157;SDS011;67284;44.782;10.282;2023-07-29T18:58:04;7.00;;;3.92;;
26157;SDS011;67284;44.782;10.282;2023-07-29T19:02:55;6.82;;;3.80;;
26157;SDS011;67284;44.782;10.282;2023-07-29T19:07:47;6.82;;;4.72;;
26157;SDS011;67284;44.782;10.282;2023-07-29T19:12:39;6.93;;;4.60;;
26157;SDS011;67284;44.782;10.282;2023-07-29T19:17:31;7.38;;;4.43;;
26157;SDS011;67284;44.782;10.282;2023-07-29T19:22:23;6.53;;;4.38;;
26157;SDS011;67284;44.782;10.282;2023-07-29T19:27:15;8.32;;;4.03;;
26157;SDS011;67284;44.782;10.282;2023-07-29T19:32:07;6.22;;;4.07;;
26157;SDS011;67284;44.782;10.282;2023-07-29T19:36:59;5.85;;;4.28;;
26157;SDS011;67284;44.782;10.282;2023-07-29T19:41:51;6.75;;;4.28;;
26157;SDS011;67284;44.782;10.282;2023-07-29T19:46:43;6.88;;;4.45;;
26157;SDS011;67284;44.782;10.282;2023-07-29T19:51:35;6.13;;;4.43;;
26157;SDS011;67284;44.782;10.282;2023-07-29T19:56:27;5.20;;;4.15;;
26157;SDS011;67284;44.782;10.282;2023-07-29T20:01:19;8.00;;;3.85;;
26157;SDS011;67284;44.782;10.282;2023-07-29T20:06:11;8.07;;;4.15;;
26157;SDS011;67284;44.782;10.282;2023-07-29T20:11:03;7.40;;;4.10;;
26157;SDS011;67284;44.782;10.282;2023-07-29T20:15:55;9.50;;;3.78;;
26157;SDS011;67284;44.782;10.282;2023-07-29T20:20:47;6.10;;;3.92;;
26157;SDS011;67284;44.782;10.282;2023-07-29T20:25:39;5.53;;;3.95;;
26157;SDS011;67284;44.782;10.282;2023-07-29T20:30:31;6.00;;;3.95;;
26157;SDS011;67284;44.782;10.282;2023-07-29T20:35:24;4.60;;;3.85;;
26157;SDS011;67284;44.782;10.282;2023-07-29T20:40:16;6.25;;;4.07;;
26157;SDS011;67284;44.782;10.282;2023-07-29T20:45:08;5.40;;;3.88;;
26157;SDS011;67284;44.782;10.282;2023-07-29T20:50:00;7.65;;;3.97;;
26157;SDS011;67284;44.782;10.282;2023-07-29T20:54:52;5.45;;;4.20;;
26157;SDS011;67284;44.782;10.282;2023-07-29T20:59:44;7.68;;;4.40;;
26157;SDS011;67284;44.782;10.282;2023-07-29T21:04:36;6.15;;;3.78;;
26157;SDS011;67284;44.782;10.282;2023-07-29T21:09:28;6.18;;;4.22;;
26157;SDS011;67284;44.782;10.282;2023-07-29T21:14:20;7.45;;;3.80;;
26157;SDS011;67284;44.782;10.282;2023-07-29T21:19:14;8.10;;;3.75;;
26157;SDS011;67284;44.782;10.282;2023-07-29T21:24:06;7.30;;;4.40;;
26157;SDS011;67284;44.782;10.282;2023-07-29T21:28:58;6.05;;;3.92;;
26157;SDS011;67284;44.782;10.282;2023-07-29T21:33:50;6.57;;;4.20;;
26157;SDS011;67284;44.782;10.282;2023-07-29T21:38:42;6.65;;;3.80;;
26157;SDS011;67284;44.782;10.282;2023-07-29T21:43:34;5.25;;;3.95;;
26157;SDS011;67284;44.782;10.282;2023-07-29T21:48:25;10.43;;;4.85;;
26157;SDS011;67284;44.782;10.282;2023-07-29T21:53:17;6.80;;;4.50;;
26157;SDS011;67284;44.782;10.282;2023-07-29T21:58:09;8.43;;;4.35;;
26157;SDS011;67284;44.782;10.282;2023-07-29T22:03:01;7.20;;;3.72;;
26157;SDS011;67284;44.782;10.282;2023-07-29T22:07:53;7.18;;;4.05;;
26157;SDS011;67284;44.782;10.282;2023-07-29T22:12:44;5.53;;;4.22;;
26157;SDS011;67284;44.782;10.282;2023-07-29T22:17:37;5.63;;;4.05;;
26157;SDS011;67284;44.782;10.282;2023-07-29T22:22:28;7.00;;;4.35;;
26157;SDS011;67284;44.782;10.282;2023-07-29T22:27:20;8.70;;;4.85;;
26157;SDS011;67284;44.782;10.282;2023-07-29T22:32:12;6.32;;;4.47;;
26157;SDS011;67284;44.782;10.282;2023-07-29T22:37:05;6.10;;;4.50;;
26157;SDS011;67284;44.782;10.282;2023-07-29T22:41:59;4.50;;;4.03;;
26157;SDS011;67284;44.782;10.282;2023-07-29T22:46:51;6.88;;;5.00;;
26157;SDS011;67284;44.782;10.282;2023-07-29T22:51:43;5.60;;;4.30;;
26157;SDS011;67284;44.782;10.282;2023-07-29T22:56:35;6.47;;;3.83;;
26157;SDS011;67284;44.782;10.282;2023-07-29T23:01:27;6.60;;;4.43;;
26157;SDS011;67284;44.782;10.282;2023-07-29T23:06:19;4.68;;;4.05;;
26157;SDS011;67284;44.782;10.282;2023-07-29T23:11:11;8.57;;;4.60;;
26157;SDS011;67284;44.782;10.282;2023-07-29T23:16:03;9.18;;;4.75;;
26157;SDS011;67284;44.782;10.282;2023-07-29T23:20:55;6.53;;;4.53;;
26157;SDS011;67284;44.782;10.282;2023-07-29T23:25:47;9.38;;;4.50;;
26157;SDS011;67284;44.782;10.282;2023-07-29T23:30:39;6.63;;;4.63;;
26157;SDS011;67284;44.782;10.282;2023-07-29T23:35:31;8.32;;;4.15;;
26157;SDS011;67284;44.782;10.282;2023-07-29T23:40:23;6.35;;;4.10;;
26157;SDS011;67284;44.782;10.282;2023-07-29T23:45:15;6.80;;;4.60;;
26157;SDS011;67284;44.782;10.282;2023-07-29T23:50:07;7.72;;;3.80;;
26157;SDS011;67284;44.782;10.282;2023-07-29T23:54:59;4.05;;;3.63;;
26157;SDS011;67284;44.782;10.282;2023-07-29T23:59:52;7.32;;;4.35;;
